Time;durP1;ratioP1;P1;durP2;ratioP2;P2;SDS_P1;SDS_P2;PMS_P1;PMS_P2;Temp;Humidity;BMP_temperature;BMP_pressure;BME280_temperature;BME280_humidity;BME280_pressure;Samples;Min_cycle;Max_cycle;Signal;HPM_P1;HPM_P2
2022/05/28 00:00:23;;;;;;;2.92;1.72;;;;;;;17.09;59.87;99068.13;1769348;78;21124;-65
2022/05/28 00:02:50;;;;;;;1.82;1.72;;;;;;;17.08;59.94;99079.09;1759856;78;21135;-65
2022/05/28 00:05:16;;;;;;;1.67;1.57;;;;;;;17.05;59.98;99084.90;1757327;79;21060;-64
2022/05/28 00:07:42;;;;;;;2.95;2.22;;;;;;;17.05;59.96;99088.92;1751747;78;21054;-65
2022/05/28 00:10:11;;;;;;;3.30;1.85;;;;;;;17.02;59.99;99078.13;1770314;79;21075;-65
2022/05/28 00:12:39;;;;;;;2.08;1.87;;;;;;;16.99;60.09;99075.08;1761610;79;21072;-65
2022/05/28 00:15:06;;;;;;;2.90;2.40;;;;;;;16.95;60.23;99078.73;1762327;79;22081;-65
2022/05/28 00:17:33;;;;;;;4.85;2.40;;;;;;;16.94;60.32;99056.98;1775461;79;21073;-66
2022/05/28 00:20:00;;;;;;;2.08;1.32;;;;;;;16.91;60.41;99049.38;1771397;79;21107;-65
2022/05/28 00:22:26;;;;;;;3.45;2.05;;;;;;;16.89;60.41;99038.86;1747440;79;21092;-65
2022/05/28 00:24:56;;;;;;;1.92;1.77;;;;;;;16.87;60.41;99026.20;1759047;79;21073;-64
2022/05/28 00:27:22;;;;;;;3.27;2.22;;;;;;;16.86;60.45;99019.72;1765115;79;21085;-65
2022/05/28 00:29:49;;;;;;;2.12;1.82;;;;;;;16.83;60.54;99016.97;1770464;78;22040;-65
2022/05/28 00:32:15;;;;;;;2.12;1.92;;;;;;;16.82;60.61;99027.92;1772104;79;21553;-65
2022/05/28 00:34:43;;;;;;;2.15;1.72;;;;;;;16.79;60.68;99014.95;1771097;79;21057;-65
2022/05/28 00:37:10;;;;;;;1.98;1.80;;;;;;;16.76;60.70;98993.94;1773104;78;21037;-64
2022/05/28 00:39:36;;;;;;;3.72;2.00;;;;;;;16.74;60.75;99018.83;1779107;78;22533;-64
2022/05/28 00:42:03;;;;;;;2.25;1.80;;;;;;;16.73;60.80;99039.97;1799759;78;20988;-65
2022/05/28 00:44:29;;;;;;;2.77;1.90;;;;;;;16.71;60.85;99042.37;1805228;78;21601;-65
2022/05/28 00:46:56;;;;;;;2.75;1.87;;;;;;;16.70;60.87;99038.03;1807439;78;21099;-64
2022/05/28 00:49:27;;;;;;;3.25;1.87;;;;;;;16.69;60.89;99057.88;1793753;78;21016;-65
2022/05/28 00:51:56;;;;;;;2.42;2.22;;;;;;;16.68;60.92;99047.36;1792779;80;21518;-64
2022/05/28 00:54:23;;;;;;;2.00;1.75;;;;;;;16.65;60.98;99038.41;1796953;78;21505;-64
2022/05/28 00:56:49;;;;;;;2.02;1.80;;;;;;;16.65;61.00;99035.23;1787931;78;21384;-64
2022/05/28 00:59:16;;;;;;;2.27;2.08;;;;;;;16.61;61.03;99036.73;1762521;78;21088;-64
2022/05/28 01:01:43;;;;;;;3.20;2.00;;;;;;;16.62;61.05;99051.75;1778899;78;21490;-65
2022/05/28 01:04:37;;;;;;;3.55;2.00;;;;;;;16.62;61.14;99034.33;1793118;78;21064;-64
2022/05/28 01:07:10;;;;;;;;;;;;;;;16.60;61.21;99024.34;1760830;80;21018;-65
2022/05/28 01:09:48;;;;;;;4.35;2.05;;;;;;;16.57;61.29;99028.80;1768069;80;20192;-64
2022/05/28 01:12:34;;;;;;;3.05;2.12;;;;;;;16.52;61.38;99038.06;1770778;80;21534;-65
2022/05/28 01:15:17;;;;;;;3.65;2.27;;;;;;;16.50;61.50;99050.88;1761798;80;21057;-65
2022/05/28 01:17:53;;;;;;;2.30;2.10;;;;;;;16.49;61.49;99058.08;1774624;80;21581;-65
2022/05/28 01:20:26;;;;;;;2.52;2.10;;;;;;;16.47;61.48;99052.12;1759395;80;21076;-64
2022/05/28 01:23:48;;;;;;;3.05;2.10;;;;;;;16.46;61.47;99058.55;1794939;80;21568;-65
2022/05/28 01:26:50;;;;;;;2.40;2.10;;;;;;;16.45;61.53;99053.40;1795970;78;21044;-65
2022/05/28 01:29:17;;;;;;;3.42;1.92;;;;;;;16.41;61.57;99049.00;1792305;78;21020;-65
2022/05/28 01:31:44;;;;;;;2.65;2.45;;;;;;;16.38;61.60;99048.63;1797267;78;21060;-64
2022/05/28 01:34:11;;;;;;;2.67;1.92;;;;;;;16.36;61.64;99024.74;1791104;78;21037;-64
2022/05/28 01:36:37;;;;;;;2.75;2.55;;;;;;;16.35;61.68;99041.05;1794539;78;21024;-64
2022/05/28 01:39:05;;;;;;;2.92;2.20;;;;;;;16.34;61.75;99046.94;1783254;78;21092;-64
2022/05/28 01:41:33;;;;;;;2.52;2.10;;;;;;;16.35;61.73;99046.41;1783163;79;21141;-64
2022/05/28 01:44:00;;;;;;;2.65;2.40;;;;;;;16.34;61.73;99046.09;1799427;78;21134;-65
2022/05/28 01:46:29;;;;;;;3.27;2.30;;;;;;;16.31;61.81;99045.50;1770237;80;21105;-64
2022/05/28 01:48:56;;;;;;;3.70;2.27;;;;;;;16.31;61.86;99062.92;1760146;80;21026;-64
2022/05/28 01:51:26;;;;;;;2.80;2.08;;;;;;;16.31;61.87;99057.55;1769422;79;20997;-65
2022/05/28 01:54:08;;;;;;;2.37;2.15;;;;;;;16.30;61.88;99042.53;1748464;80;21038;-66
2022/05/28 01:56:37;;;;;;;2.67;2.12;;;;;;;16.30;61.84;99049.23;1776642;79;21529;-66
2022/05/28 01:59:04;;;;;;;3.33;2.27;;;;;;;16.30;61.87;99064.47;1765059;79;21092;-64
2022/05/28 02:01:30;;;;;;;3.92;2.20;;;;;;;16.27;61.95;99063.06;1769312;79;21007;-64
2022/05/28 02:03:59;;;;;;;3.47;2.65;;;;;;;16.27;61.96;99066.28;1776627;80;22033;-65
2022/05/28 02:06:25;;;;;;;2.30;2.10;;;;;;;16.27;61.93;99053.69;1776805;80;21045;-67
2022/05/28 02:08:52;;;;;;;2.58;1.95;;;;;;;16.27;61.96;99042.97;1761842;80;21129;-65
2022/05/28 02:11:26;;;;;;;3.08;2.35;;;;;;;16.26;62.01;99045.86;1742380;80;21009;-64
2022/05/28 02:14:20;;;;;;;2.90;2.20;;;;;;;16.26;62.00;99030.63;1765360;80;21018;-65
2022/05/28 02:17:05;;;;;;;;;;;;;;;16.26;62.05;99019.91;1787858;78;21002;-64
2022/05/28 02:19:50;;;;;;;2.83;2.40;;;;;;;16.27;62.06;99016.70;1794301;78;20227;-65
2022/05/28 02:22:41;;;;;;;3.10;2.20;;;;;;;16.27;62.04;99027.41;1771911;78;21124;-65
2022/05/28 02:25:13;;;;;;;2.08;1.90;;;;;;;16.24;62.06;99019.28;1787277;78;21043;-63
2022/05/28 02:27:40;;;;;;;3.37;2.40;;;;;;;16.24;62.04;99027.32;1790680;78;21013;-64
2022/05/28 02:30:10;;;;;;;2.77;2.47;;;;;;;16.23;62.00;99020.34;1787504;78;21081;-64
2022/05/28 02:32:36;;;;;;;2.40;2.10;;;;;;;16.23;61.99;99029.72;1765236;80;21028;-64
2022/05/28 02:35:03;;;;;;;2.77;2.42;;;;;;;16.25;61.94;99050.94;1785866;79;21196;-65
2022/05/28 02:37:30;;;;;;;3.30;2.67;;;;;;;16.24;61.95;99068.86;1760394;80;21081;-65
2022/05/28 02:39:57;;;;;;;3.10;2.52;;;;;;;16.24;61.95;99066.17;1771738;79;21016;-64
2022/05/28 02:42:24;;;;;;;3.83;2.90;;;;;;;16.23;61.95;99063.74;1792187;80;21457;-65
2022/05/28 02:44:51;;;;;;;2.75;2.45;;;;;;;16.24;61.99;99054.64;1789960;78;21517;-64
2022/05/28 02:47:18;;;;;;;2.87;2.40;;;;;;;16.22;62.01;99043.33;1769107;80;21146;-63
2022/05/28 02:49:44;;;;;;;3.40;3.10;;;;;;;16.20;62.07;99044.88;1773702;80;21022;-65
2022/05/28 02:54:12;;;;;;;4.62;2.42;;;;;;;16.23;62.16;99054.36;1870228;76;28718;-64
2022/05/28 02:56:39;;;;;;;3.37;3.05;;;;;;;16.17;62.17;99058.75;1810372;77;20986;-64
2022/05/28 02:59:05;;;;;;;3.67;2.60;;;;;;;16.18;62.21;99055.53;1812692;77;21134;-64
2022/05/28 03:01:33;;;;;;;2.80;2.50;;;;;;;16.18;62.25;99059.55;1825996;77;21563;-65
2022/05/28 03:04:00;;;;;;;3.33;2.72;;;;;;;16.17;62.22;99061.42;1824892;77;21017;-64
2022/05/28 03:06:27;;;;;;;5.50;2.70;;;;;;;16.18;62.18;99056.87;1792979;77;21486;-65
2022/05/28 03:08:53;;;;;;;4.47;2.77;;;;;;;16.18;62.16;99058.22;1791959;77;20961;-65
2022/05/28 03:11:20;;;;;;;2.62;2.42;;;;;;;16.17;62.12;99045.34;1819572;77;21524;-64
2022/05/28 03:13:46;;;;;;;2.72;2.52;;;;;;;16.17;62.12;99052.05;1815881;77;20974;-65
2022/05/28 03:16:13;;;;;;;2.67;2.47;;;;;;;16.16;62.11;99050.39;1824657;77;21053;-65
2022/05/28 03:18:39;;;;;;;4.37;3.00;;;;;;;16.16;62.08;99062.45;1822259;77;21009;-63
2022/05/28 03:21:06;;;;;;;4.60;2.62;;;;;;;16.18;62.06;99068.41;1813610;77;21021;-65
2022/05/28 03:23:33;;;;;;;4.10;2.67;;;;;;;16.20;62.08;99070.87;1826261;78;21759;-66
2022/05/28 03:26:21;;;;;;;3.12;2.83;;;;;;;16.19;62.10;99070.59;1822352;77;21040;-64
2022/05/28 03:28:53;;;;;;;3.05;2.45;;;;;;;16.20;62.15;99074.36;1808333;77;21544;-66
2022/05/28 03:31:17;;;;;;;2.95;2.50;;;;;;;16.20;62.15;99074.36;1820323;77;21002;-64
2022/05/28 03:33:44;;;;;;;3.47;3.00;;;;;;;16.21;62.11;99085.92;1826207;78;21522;-65
2022/05/28 03:36:11;;;;;;;5.05;2.70;;;;;;;16.21;62.07;99080.03;1824534;77;21127;-65
2022/05/28 03:38:38;;;;;;;4.25;3.52;;;;;;;16.21;62.08;99078.70;1821265;77;21029;-64
2022/05/28 03:41:06;;;;;;;3.62;2.70;;;;;;;16.24;62.08;99081.44;1823556;78;21056;-67
2022/05/28 03:43:33;;;;;;;4.47;2.95;;;;;;;16.23;62.02;99069.10;1825270;78;21499;-65
2022/05/28 03:45:59;;;;;;;3.67;2.70;;;;;;;16.24;61.92;99073.41;1819700;77;21025;-65
2022/05/28 03:48:26;;;;;;;3.25;2.60;;;;;;;16.23;61.93;99077.14;1803394;78;22410;-65
2022/05/28 03:50:52;;;;;;;3.75;2.50;;;;;;;16.23;61.96;99086.52;1808840;77;21052;-64
2022/05/28 03:53:19;;;;;;;3.95;2.92;;;;;;;16.24;61.98;99087.61;1796338;78;21033;-64
2022/05/28 03:55:46;;;;;;;4.33;2.72;;;;;;;16.24;61.96;99084.94;1815020;77;21064;-65
2022/05/28 03:58:14;;;;;;;3.77;2.92;;;;;;;16.24;61.96;99081.44;1818217;77;21143;-64
2022/05/28 04:00:41;;;;;;;3.10;2.80;;;;;;;16.24;61.95;99080.91;1811489;77;21229;-63
2022/05/28 04:03:09;;;;;;;3.85;2.85;;;;;;;16.25;61.86;99078.55;1820461;77;20970;-65
2022/05/28 04:05:38;;;;;;;3.65;2.90;;;;;;;16.27;61.75;99086.37;1819235;78;21029;-65
2022/05/28 04:08:06;;;;;;;3.52;2.77;;;;;;;16.28;61.70;99090.68;1800275;78;21100;-63
2022/05/28 04:10:33;;;;;;;3.10;2.80;;;;;;;16.29;61.73;99093.67;1819033;77;20982;-65
2022/05/28 04:12:59;;;;;;;3.15;2.85;;;;;;;16.29;61.69;99090.99;1813261;77;21119;-65
2022/05/28 04:15:28;;;;;;;2.70;2.50;;;;;;;16.30;61.67;99093.95;1807015;77;21018;-65
2022/05/28 04:17:55;;;;;;;3.37;2.92;;;;;;;16.31;61.69;99095.61;1818262;78;21061;-64
2022/05/28 04:20:22;;;;;;;3.20;2.90;;;;;;;16.30;61.63;99092.61;1815922;78;21055;-65
2022/05/28 04:22:49;;;;;;;2.83;2.62;;;;;;;16.30;61.59;99096.14;1811371;78;20983;-63
2022/05/28 04:25:15;;;;;;;3.72;3.27;;;;;;;16.31;61.54;99086.23;1816404;78;21122;-59
2022/05/28 04:27:43;;;;;;;6.83;3.65;;;;;;;16.31;61.51;99092.41;1817471;77;21010;-58
2022/05/28 04:30:11;;;;;;;4.08;3.50;;;;;;;16.31;61.56;99091.06;1819958;78;21533;-59
2022/05/28 04:32:39;;;;;;;5.05;3.83;;;;;;;16.34;61.64;99094.34;1820711;78;21088;-59
2022/05/28 04:35:06;;;;;;;4.80;3.30;;;;;;;16.34;61.69;99096.52;1819255;78;21056;-58
2022/05/28 04:37:32;;;;;;;4.62;3.70;;;;;;;16.35;61.64;99099.48;1820862;78;22976;-58
2022/05/28 04:39:58;;;;;;;4.62;3.02;;;;;;;16.37;61.62;99110.80;1816330;78;21011;-59
2022/05/28 04:42:25;;;;;;;3.33;3.02;;;;;;;16.40;61.48;99108.19;1816669;77;21057;-59
2022/05/28 04:44:52;;;;;;;4.42;3.30;;;;;;;16.40;61.54;99105.51;1812933;78;21119;-59
2022/05/28 04:47:19;;;;;;;3.50;3.00;;;;;;;16.41;61.60;99107.16;1817856;77;21002;-59
2022/05/28 04:49:45;;;;;;;3.30;3.00;;;;;;;16.42;61.66;99099.44;1813445;78;21807;-59
2022/05/28 04:52:12;;;;;;;4.78;3.20;;;;;;;16.44;61.68;99104.05;1815217;78;21060;-58
2022/05/28 04:54:38;;;;;;;4.20;3.37;;;;;;;16.45;61.71;99101.13;1822889;77;21053;-60
2022/05/28 04:57:05;;;;;;;4.58;3.55;;;;;;;16.46;61.59;99105.45;1824046;78;20991;-57
2022/05/28 04:59:31;;;;;;;4.05;3.27;;;;;;;16.47;61.52;99108.95;1820839;77;21029;-57
2022/05/28 05:01:58;;;;;;;3.83;3.17;;;;;;;16.49;61.43;99107.67;1805762;78;21191;-58
2022/05/28 05:04:24;;;;;;;4.42;2.95;;;;;;;16.50;61.38;99115.22;1810882;77;21020;-59
2022/05/28 05:06:51;;;;;;;4.47;3.22;;;;;;;16.50;61.32;99118.72;1810593;77;21027;-58
2022/05/28 05:09:17;;;;;;;4.92;3.17;;;;;;;16.51;61.31;99108.30;1817572;78;21025;-59
2022/05/28 05:11:45;;;;;;;6.33;3.47;;;;;;;16.53;61.33;99106.72;1822083;77;21005;-59
2022/05/28 05:14:12;;;;;;;4.92;3.87;;;;;;;16.55;61.28;99112.67;1822271;78;21291;-59
2022/05/28 05:16:38;;;;;;;4.03;3.20;;;;;;;16.56;61.17;99116.20;1819939;77;21488;-59
2022/05/28 05:19:04;;;;;;;3.87;3.42;;;;;;;16.57;61.10;99123.99;1821275;77;21005;-60
2022/05/28 05:21:31;;;;;;;2.98;2.70;;;;;;;16.58;61.02;99102.86;1825923;78;21024;-59
2022/05/28 05:23:58;;;;;;;3.30;2.80;;;;;;;16.61;60.96;99109.13;1819495;77;21009;-63
2022/05/28 05:26:24;;;;;;;16.90;9.43;;;;;;;16.64;61.28;99085.87;1813330;77;21097;-62
2022/05/28 05:28:51;;;;;;;23.00;9.13;;;;;;;16.74;63.57;99088.55;1809489;77;20986;-64
2022/05/28 05:31:18;;;;;;;16.87;7.50;;;;;;;16.96;64.03;99093.80;1821061;77;21494;-63
2022/05/28 05:33:44;;;;;;;12.60;6.42;;;;;;;17.24;63.87;99088.37;1823227;77;21083;-64
2022/05/28 05:36:12;;;;;;;14.93;5.42;;;;;;;17.52;63.50;99094.98;1803568;77;21509;-62
2022/05/28 05:38:39;;;;;;;13.28;6.15;;;;;;;17.79;63.10;99096.24;1818058;77;21721;-62
2022/05/28 05:41:05;;;;;;;13.50;6.08;;;;;;;18.04;62.67;99110.85;1822039;77;21024;-62
2022/05/28 05:43:32;;;;;;;12.07;5.28;;;;;;;18.28;62.25;99104.95;1820054;77;21081;-62
2022/05/28 05:46:00;;;;;;;11.97;5.95;;;;;;;18.49;61.89;99101.38;1817925;77;21068;-64
2022/05/28 05:48:27;;;;;;;9.43;5.20;;;;;;;18.70;61.52;99095.08;1816489;77;21045;-59
2022/05/28 05:50:54;;;;;;;10.28;5.53;;;;;;;18.87;60.98;99125.61;1822006;77;22309;-60
2022/05/28 05:53:20;;;;;;;9.75;5.00;;;;;;;19.04;60.31;99118.96;1825488;78;21053;-59
2022/05/28 05:55:47;;;;;;;7.55;4.60;;;;;;;19.14;60.06;99116.49;1816579;77;21013;-59
2022/05/28 05:58:14;;;;;;;11.25;4.17;;;;;;;19.26;59.75;99127.22;1821139;78;21044;-59
2022/05/28 06:00:41;;;;;;;6.65;4.80;;;;;;;19.34;59.48;99131.41;1807576;78;21021;-61
2022/05/28 06:03:08;;;;;;;7.28;4.35;;;;;;;19.40;59.14;99127.74;1821370;77;21134;-59
2022/05/28 06:05:34;;;;;;;8.40;3.90;;;;;;;19.48;58.75;99137.31;1780766;79;21468;-61
2022/05/28 06:08:01;;;;;;;8.93;4.40;;;;;;;19.54;58.37;99122.88;1815820;78;20990;-60
2022/05/28 06:10:28;;;;;;;9.03;4.12;;;;;;;19.58;58.24;99124.83;1810593;77;21061;-69
2022/05/28 06:12:55;;;;;;;6.55;4.22;;;;;;;19.64;58.36;99123.89;1826452;77;20998;-69
2022/05/28 06:15:21;;;;;;;5.90;3.80;;;;;;;19.70;58.61;99125.30;1825013;78;21192;-71
2022/05/28 06:17:48;;;;;;;10.08;4.42;;;;;;;19.75;58.96;99139.72;1825644;78;21018;-69
2022/05/28 06:20:15;;;;;;;7.90;3.50;;;;;;;19.83;59.33;99134.45;1825636;77;21025;-66
2022/05/28 06:22:42;;;;;;;7.87;3.40;;;;;;;19.89;59.39;99134.02;1819890;77;21009;-60
2022/05/28 06:25:10;;;;;;;5.90;3.58;;;;;;;19.94;58.92;99134.92;1818526;78;21064;-60
2022/05/28 06:27:36;;;;;;;6.70;4.25;;;;;;;19.99;58.27;99128.78;1823184;78;21104;-59
2022/05/28 06:30:06;;;;;;;4.47;2.95;;;;;;;20.00;57.68;99127.20;1810926;78;21454;-60
2022/05/28 06:32:34;;;;;;;3.62;3.25;;;;;;;20.00;57.13;99122.34;1817733;77;21006;-61
2022/05/28 06:35:01;;;;;;;4.12;2.75;;;;;;;20.00;56.69;99130.44;1820394;78;21033;-61
2022/05/28 06:37:28;;;;;;;3.52;2.80;;;;;;;19.98;56.35;99128.52;1824420;77;21552;-59
2022/05/28 06:39:54;;;;;;;3.80;3.08;;;;;;;19.98;55.95;99120.43;1823047;78;21137;-60
2022/05/28 06:42:20;;;;;;;3.75;2.85;;;;;;;19.97;55.63;99124.17;1825863;78;21091;-60
2022/05/28 06:44:47;;;;;;;4.97;3.02;;;;;;;19.96;55.42;99128.75;1823561;78;20997;-59
2022/05/28 06:47:13;;;;;;;4.58;3.22;;;;;;;19.96;55.18;99119.86;1824228;78;21612;-60
2022/05/28 06:49:40;;;;;;;3.33;2.83;;;;;;;19.94;55.07;99113.36;1824862;78;21041;-61
2022/05/28 06:52:07;;;;;;;3.12;2.37;;;;;;;19.94;54.98;99120.63;1825744;78;21124;-61
2022/05/28 06:54:33;;;;;;;3.80;3.15;;;;;;;19.95;54.81;99123.09;1810583;78;21000;-60
2022/05/28 06:57:00;;;;;;;3.40;3.00;;;;;;;19.94;54.72;99120.09;1810808;79;21065;-59
2022/05/28 06:59:26;;;;;;;3.40;2.40;;;;;;;19.96;54.58;99123.90;1814565;78;21002;-60
2022/05/28 07:01:56;;;;;;;3.60;2.50;;;;;;;19.96;54.54;99126.59;1806294;79;21005;-61
2022/05/28 07:04:21;;;;;;;5.05;2.80;;;;;;;19.97;54.38;99124.17;1793641;79;21147;-60
2022/05/28 07:06:48;;;;;;;4.47;2.47;;;;;;;19.99;54.26;99119.34;1813437;79;21033;-61
2022/05/28 07:09:15;;;;;;;2.75;2.47;;;;;;;20.01;54.10;99123.97;1814236;79;21017;-61
2022/05/28 07:11:42;;;;;;;9.75;2.85;;;;;;;20.01;53.93;99122.11;1809258;78;21096;-60
2022/05/28 07:14:08;;;;;;;3.85;2.72;;;;;;;20.03;53.84;99120.52;1816078;78;20983;-59
2022/05/28 07:16:36;;;;;;;4.22;2.83;;;;;;;20.04;53.70;99130.23;1807778;78;21129;-60
2022/05/28 07:19:03;;;;;;;3.50;2.40;;;;;;;20.05;53.57;99121.09;1788635;79;20982;-61
2022/05/28 07:21:30;;;;;;;4.00;3.15;;;;;;;20.06;53.39;99122.70;1806155;78;21033;-62
2022/05/28 07:23:57;;;;;;;3.72;2.60;;;;;;;20.06;53.30;99125.41;1813199;79;21061;-60
2022/05/28 07:26:24;;;;;;;3.47;2.45;;;;;;;20.08;53.07;99125.97;1814492;79;21010;-60
2022/05/28 07:28:50;;;;;;;3.62;2.27;;;;;;;20.09;52.99;99132.17;1809826;78;21818;-60
2022/05/28 07:31:20;;;;;;;3.02;2.40;;;;;;;20.12;52.88;99133.05;1814286;79;20994;-60
2022/05/28 07:33:48;;;;;;;6.15;2.60;;;;;;;20.14;52.64;99136.31;1814248;79;20963;-61
2022/05/28 07:36:22;;;;;;;3.67;2.30;;;;;;;20.15;52.56;99133.38;1814171;79;21068;-60
2022/05/28 07:38:48;;;;;;;2.77;2.20;;;;;;;20.17;52.40;99133.95;1814564;79;21111;-60
2022/05/28 07:41:21;;;;;;;4.42;2.70;;;;;;;20.18;52.28;99127.47;1813309;79;21680;-59
2022/05/28 07:43:48;;;;;;;2.60;2.40;;;;;;;20.20;52.12;99123.19;1812817;77;21027;-61
2022/05/28 07:46:18;;;;;;;2.75;2.00;;;;;;;20.22;51.93;99111.11;1809726;79;21048;-60
2022/05/28 07:48:45;;;;;;;3.98;2.37;;;;;;;20.25;51.82;99115.19;1803993;77;21541;-61
2022/05/28 07:51:11;;;;;;;4.67;2.65;;;;;;;20.27;51.80;99118.45;1806068;77;21048;-64
2022/05/28 07:53:38;;;;;;;5.85;2.80;;;;;;;20.30;52.19;99114.44;1787747;79;21132;-64
2022/05/28 07:56:05;;;;;;;6.60;2.87;;;;;;;20.34;53.53;99128.55;1790915;78;21052;-66
2022/05/28 07:58:32;;;;;;;6.03;2.80;;;;;;;20.39;53.41;99125.09;1812680;78;21013;-66
2022/05/28 08:01:00;;;;;;;4.37;3.12;;;;;;;20.44;53.82;99122.48;1805429;78;21588;-66
2022/05/28 08:03:29;;;;;;;4.87;3.25;;;;;;;20.50;53.73;99124.72;1810880;77;21052;-63
2022/05/28 08:05:57;;;;;;;3.92;2.75;;;;;;;20.56;53.33;99124.53;1817095;78;21018;-62
2022/05/28 08:08:26;;;;;;;5.45;2.87;;;;;;;20.60;52.15;99124.34;1813981;78;21516;-63
2022/05/28 08:10:53;;;;;;;5.22;3.20;;;;;;;20.63;52.01;99132.50;1815537;78;21056;-60
2022/05/28 08:13:22;;;;;;;3.05;2.67;;;;;;;20.62;51.15;99133.01;1812719;77;21528;-61
2022/05/28 08:15:51;;;;;;;5.58;2.90;;;;;;;20.55;50.98;99126.97;1811989;78;21037;-61
2022/05/28 08:18:20;;;;;;;7.35;2.90;;;;;;;20.50;51.11;99126.88;1813495;77;21712;-63
2022/05/28 08:23:31;;;;;;;3.87;2.58;;;;;;;20.51;50.27;99133.89;1812318;78;21096;-60
2022/05/28 08:25:59;;;;;;;4.65;2.85;;;;;;;20.52;52.23;99131.50;1788046;78;21061;-60
2022/05/28 08:28:25;;;;;;;7.10;3.17;;;;;;;20.59;53.29;99134.88;1793460;78;21025;-62
2022/05/28 08:30:52;;;;;;;5.87;2.70;;;;;;;20.69;53.66;99125.29;1804596;78;21209;-63
2022/05/28 08:33:19;;;;;;;5.03;2.52;;;;;;;20.82;53.78;99150.54;1808706;78;21046;-60
2022/05/28 08:35:46;;;;;;;5.80;2.67;;;;;;;20.92;52.92;99140.41;1812601;77;21061;-63
2022/05/28 08:38:16;;;;;;;4.30;2.70;;;;;;;21.01;53.10;99139.75;1807019;78;21076;-61
2022/05/28 08:41:08;;;;;;;3.75;2.33;;;;;;;21.12;52.90;99135.81;1820387;78;20982;-63
2022/05/28 08:43:38;;;;;;;8.05;3.10;;;;;;;21.21;52.76;99137.01;1816201;77;21098;-63
2022/05/28 08:46:07;;;;;;;6.58;2.40;;;;;;;21.30;52.76;99128.71;1812354;77;20989;-62
2022/05/28 08:48:49;;;;;;;5.37;2.60;;;;;;;21.39;52.24;99136.66;1798769;78;21021;-60
2022/05/28 08:51:56;;;;;;;6.27;2.37;;;;;;;21.47;50.93;99139.47;1812831;77;21096;-60
2022/05/28 08:54:31;;;;;;;4.58;2.70;;;;;;;21.53;50.30;99128.98;1792390;78;20991;-59
2022/05/28 08:57:13;;;;;;;4.40;2.30;;;;;;;21.57;49.70;99141.45;1813051;79;21203;-60
2022/05/28 08:59:46;;;;;;;2.20;1.98;;;;;;;21.60;48.69;99146.36;1814286;79;27207;-59
2022/05/28 09:02:21;;;;;;;3.20;1.80;;;;;;;21.58;47.99;99138.50;1810234;79;21010;-60
2022/05/28 09:04:48;;;;;;;4.08;1.98;;;;;;;21.58;47.79;99126.34;1777216;79;21025;-60
2022/05/28 09:07:14;;;;;;;2.90;1.80;;;;;;;21.60;47.56;99135.55;1803934;78;21518;-59
2022/05/28 09:09:46;;;;;;;2.98;2.02;;;;;;;21.60;47.19;99145.02;1809169;78;21099;-59
2022/05/28 09:12:27;;;;;;;2.37;1.80;;;;;;;21.60;47.31;99127.45;1813096;79;20987;-59
2022/05/28 09:14:56;;;;;;;3.87;2.35;;;;;;;21.61;47.42;99158.79;1814360;78;21010;-60
2022/05/28 09:17:36;;;;;;;5.47;1.80;;;;;;;21.63;47.15;99130.16;1789009;78;21473;-58
2022/05/28 09:20:16;;;;;;;3.33;1.70;;;;;;;21.62;46.99;99138.01;1810973;79;21041;-60
2022/05/28 09:22:43;;;;;;;3.83;1.90;;;;;;;21.60;46.85;99129.61;1813135;79;21342;-60
2022/05/28 09:25:10;;;;;;;3.80;2.02;;;;;;;21.62;46.98;99124.49;1801287;79;21040;-59
2022/05/28 09:28:07;;;;;;;2.83;1.90;;;;;;;21.62;47.19;99125.84;1793055;79;21029;-59
2022/05/28 09:30:41;;;;;;;3.22;1.90;;;;;;;21.63;47.02;99121.52;1794954;79;21018;-59
2022/05/28 09:33:42;;;;;;;2.20;1.90;;;;;;;21.65;47.47;99123.97;1814506;79;21072;-60
2022/05/28 09:36:20;;;;;;;4.42;1.87;;;;;;;21.66;48.15;99118.31;1810798;78;21585;-60
2022/05/28 09:39:36;;;;;;;3.08;2.17;;;;;;;21.70;47.60;99114.02;1798923;78;21001;-59
2022/05/28 09:42:25;;;;;;;3.10;2.05;;;;;;;21.73;47.46;99118.92;1810335;78;20998;-61
2022/05/28 09:45:12;;;;;;;2.85;1.80;;;;;;;21.80;47.11;99120.05;1808955;79;21498;-59
2022/05/28 09:47:49;;;;;;;5.33;1.65;;;;;;;21.85;47.13;99120.65;1808987;79;21014;-60
2022/05/28 09:50:26;;;;;;;2.22;1.75;;;;;;;21.88;47.46;99122.28;1814509;79;21095;-59
2022/05/28 09:56:06;;;;;;;4.20;1.80;;;;;;;21.96;46.80;99115.58;1823103;78;21033;-59
2022/05/28 09:58:36;;;;;;;2.25;1.80;;;;;;;22.01;46.55;99114.28;1817893;77;20994;-60
2022/05/28 10:01:23;;;;;;;4.45;1.80;;;;;;;22.07;45.94;99117.30;1826029;78;21533;-60
2022/05/28 10:06:50;;;;;;;3.92;1.90;;;;;;;22.19;45.55;99101.72;1824806;78;21005;-60
2022/05/28 10:09:21;;;;;;;2.83;1.40;;;;;;;22.27;45.38;99096.91;1807252;78;21012;-59
2022/05/28 10:12:01;;;;;;;5.00;1.87;;;;;;;22.33;45.32;99108.87;1826236;77;21501;-59
2022/05/28 10:14:31;;;;;;;5.10;2.12;;;;;;;22.41;44.80;99119.74;1818864;77;21039;-59
2022/05/28 10:17:03;;;;;;;3.00;1.80;;;;;;;22.48;44.31;99095.14;1802636;78;21075;-60
2022/05/28 10:19:48;;;;;;;3.08;1.70;;;;;;;22.55;44.02;99093.83;1824656;78;21266;-59
2022/05/28 10:22:18;;;;;;;3.10;2.15;;;;;;;22.62;43.76;99100.38;1824835;78;21041;-59
2022/05/28 10:24:54;;;;;;;4.35;2.00;;;;;;;22.69;43.70;99100.93;1826041;78;21026;-59
2022/05/28 10:27:38;;;;;;;3.72;1.65;;;;;;;22.76;43.55;99087.98;1825799;78;21042;-60
2022/05/28 10:30:09;;;;;;;3.22;2.05;;;;;;;22.82;43.36;99119.95;1822354;77;21151;-60
2022/05/28 10:32:48;;;;;;;4.47;1.90;;;;;;;22.87;43.43;99094.27;1786815;78;21017;-60
2022/05/28 10:35:28;;;;;;;4.08;1.87;;;;;;;22.92;43.12;99090.20;1811182;77;21521;-60
2022/05/28 10:38:25;;;;;;;2.50;1.92;;;;;;;22.95;43.27;99093.75;1804347;78;21087;-60
2022/05/28 10:40:56;;;;;;;2.92;1.85;;;;;;;22.99;43.90;99090.52;1825670;78;21022;-59
2022/05/28 10:43:33;;;;;;;2.05;1.82;;;;;;;23.00;43.47;99096.20;1826067;78;21073;-60
2022/05/28 10:46:29;;;;;;;2.00;1.80;;;;;;;23.01;43.12;99072.91;1825259;77;21057;-59
2022/05/28 10:49:27;;;;;;;1.95;1.70;;;;;;;23.03;43.42;99082.97;1820922;78;21001;-60
2022/05/28 10:52:32;;;;;;;4.78;2.15;;;;;;;23.04;43.56;99077.81;1814616;78;21001;-60
2022/05/28 10:55:07;;;;;;;2.37;1.70;;;;;;;23.03;43.51;99076.20;1820308;78;21052;-60
2022/05/28 10:58:20;;;;;;;1.70;1.60;;;;;;;23.02;43.72;99078.59;1823947;78;21242;-59
2022/05/28 11:01:16;;;;;;;4.10;2.00;;;;;;;23.01;43.84;99082.39;1821421;77;21006;-59
2022/05/28 11:04:11;;;;;;;2.75;1.90;;;;;;;22.99;43.63;99074.27;1812022;79;21049;-61
2022/05/28 11:07:00;;;;;;;2.60;2.22;;;;;;;22.97;43.71;99078.59;1780760;80;21013;-61
2022/05/28 11:09:56;;;;;;;2.70;1.75;;;;;;;22.96;43.63;99081.02;1733160;81;21069;-60
2022/05/28 11:13:02;;;;;;;3.90;2.08;;;;;;;22.96;43.95;99070.18;1754036;81;22050;-60
2022/05/28 11:15:37;;;;;;;3.12;1.77;;;;;;;22.98;43.94;99072.08;1754038;81;21072;-61
2022/05/28 11:18:38;;;;;;;3.00;2.00;;;;;;;23.01;43.73;99074.27;1766697;80;21082;-61
2022/05/28 11:21:31;;;;;;;3.25;1.90;;;;;;;23.03;43.54;99086.23;1741615;81;21054;-59
2022/05/28 11:24:17;;;;;;;4.42;1.87;;;;;;;23.05;43.13;99070.52;1712379;81;21486;-59
2022/05/28 11:26:58;;;;;;;2.90;1.82;;;;;;;23.06;43.10;99081.06;1771368;81;21341;-60
2022/05/28 11:29:51;;;;;;;3.17;1.62;;;;;;;23.10;43.17;99074.58;1772340;81;21010;-60
2022/05/28 11:32:22;;;;;;;;;;;;;;;23.15;42.84;99070.54;1774422;80;20998;-60
2022/05/28 11:35:02;;;;;;;2.65;1.92;;;;;;;23.22;42.17;99063.50;1735079;81;20169;-61
2022/05/28 11:37:38;;;;;;;4.17;2.20;;;;;;;23.30;42.19;99068.41;1754093;80;21014;-60
2022/05/28 11:40:14;;;;;;;2.00;1.60;;;;;;;23.42;41.97;99064.09;1740243;81;21732;-61
2022/05/28 11:43:13;;;;;;;2.47;1.80;;;;;;;23.54;41.61;99076.28;1772323;81;21510;-60
2022/05/28 11:46:01;;;;;;;6.85;2.10;;;;;;;23.68;41.40;99067.10;1771286;81;21550;-60
2022/05/28 11:51:29;;;;;;;2.62;1.70;;;;;;;23.97;40.41;99081.50;1772528;81;21018;-61
2022/05/28 11:54:15;;;;;;;5.60;1.75;;;;;;;24.12;39.87;99071.96;1772340;81;21241;-61
2022/05/28 11:56:41;;;;;;;4.53;1.90;;;;;;;24.24;39.80;99071.70;1763972;81;21141;-60
2022/05/28 11:59:13;;;;;;;2.85;1.87;;;;;;;24.32;39.60;99085.25;1764291;81;21058;-61
2022/05/28 12:01:50;;;;;;;2.65;1.40;;;;;;;24.39;39.66;99088.47;1744379;81;21042;-59
2022/05/28 12:04:17;;;;;;;3.95;1.70;;;;;;;24.45;39.94;99069.72;1744965;81;21073;-60
2022/05/28 12:07:04;;;;;;;3.05;1.65;;;;;;;24.55;39.69;99084.39;1755304;80;21799;-60
2022/05/28 12:09:35;;;;;;;4.00;1.95;;;;;;;24.62;39.03;99065.36;1748984;81;20995;-60